Time;durP1;ratioP1;P1;durP2;ratioP2;P2;SDS_P1;SDS_P2;PMS_P1;PMS_P2;Temp;Humidity;BMP_temperature;BMP_pressure;BME280_temperature;BME280_humidity;BME280_pressure;Samples;Min_cycle;Max_cycle;Signal;HPM_P1;HPM_P2
2022/06/03 00:02:43;;;;;;;6.58;5.92;;;;;;;16.49;96.87;100597.66;1627495;86;21093;-69
2022/06/03 00:05:53;;;;;;;6.17;5.70;;;;;;;16.47;97.01;100595.19;1663131;84;21031;-69
2022/06/03 00:08:55;;;;;;;6.05;5.33;;;;;;;16.46;97.08;100600.28;1669676;84;21134;-70
2022/06/03 00:11:27;;;;;;;8.28;6.70;;;;;;;16.44;97.43;100604.22;1614028;85;21078;-69
2022/06/03 00:14:30;;;;;;;6.85;6.35;;;;;;;16.42;97.21;100603.62;1681801;84;21158;-69
2022/06/03 00:17:43;;;;;;;6.85;6.22;;;;;;;16.39;97.21;100607.58;1675031;84;21125;-71
2022/06/03 00:20:48;;;;;;;18.60;7.30;;;;;;;16.37;97.41;100616.89;1667626;84;21082;-69
2022/06/03 00:23:47;;;;;;;6.65;6.15;;;;;;;16.28;97.19;100617.18;1667521;84;21162;-70
2022/06/03 00:26:28;;;;;;;7.75;7.03;;;;;;;16.23;97.64;100639.05;1661467;84;21101;-71
2022/06/03 00:29:24;;;;;;;8.20;7.42;;;;;;;16.18;97.73;100649.12;1672297;84;21113;-70
2022/06/03 00:32:18;;;;;;;8.38;7.67;;;;;;;16.13;97.90;100643.57;1653804;84;21123;-69
2022/06/03 00:35:15;;;;;;;8.23;7.28;;;;;;;16.09;98.12;100653.94;1671054;83;21134;-70
2022/06/03 00:38:05;;;;;;;7.75;7.05;;;;;;;16.04;98.24;100660.48;1670673;84;21015;-69
2022/06/03 00:40:44;;;;;;;7.90;7.37;;;;;;;15.99;98.48;100660.30;1673168;84;21055;-71
2022/06/03 00:43:37;;;;;;;8.23;7.42;;;;;;;15.88;98.67;100648.88;1661596;84;21063;-69
2022/06/03 00:46:59;;;;;;;7.97;7.37;;;;;;;15.91;98.99;100662.72;1666840;84;21075;-69
2022/06/03 00:50:07;;;;;;;8.10;7.33;;;;;;;15.88;99.25;100663.66;1671600;85;21108;-73
2022/06/03 00:52:48;;;;;;;8.20;7.50;;;;;;;15.85;99.36;100655.52;1658340;85;21522;-69
2022/06/03 00:55:39;;;;;;;8.80;8.10;;;;;;;15.86;99.47;100653.65;1673324;84;21039;-70
2022/06/03 00:58:44;;;;;;;8.40;7.67;;;;;;;15.83;99.28;100651.41;1677667;85;21046;-74
2022/06/03 01:01:31;;;;;;;9.20;8.38;;;;;;;15.80;99.18;100653.99;1674572;83;21252;-69
2022/06/03 01:04:38;;;;;;;9.65;8.78;;;;;;;15.78;99.45;100660.11;1674488;84;21036;-71
2022/06/03 01:07:27;;;;;;;9.63;8.65;;;;;;;15.80;99.56;100665.27;1590091;88;21047;-70
2022/06/03 01:10:12;;;;;;;8.83;8.05;;;;;;;15.81;99.37;100676.34;1666487;84;21579;-71
2022/06/03 01:13:20;;;;;;;8.50;7.75;;;;;;;15.81;99.43;100670.97;1683142;83;21052;-80
2022/06/03 01:16:09;;;;;;;9.50;8.70;;;;;;;15.83;99.43;100672.91;1683070;84;21059;-69
2022/06/03 01:19:02;;;;;;;10.60;9.58;;;;;;;15.86;99.39;100680.53;1667006;84;21104;-69
2022/06/03 01:21:49;;;;;;;9.68;8.88;;;;;;;15.88;99.19;100690.55;1682364;84;21595;-72
2022/06/03 01:24:52;;;;;;;10.55;9.75;;;;;;;15.89;98.96;100694.89;1679397;83;21100;-70
2022/06/03 01:27:46;;;;;;;14.15;11.95;;;;;;;15.89;98.68;100693.02;1609201;87;21139;-74
2022/06/03 01:30:41;;;;;;;10.13;9.25;;;;;;;15.88;98.55;100690.55;1680657;84;21082;-70
2022/06/03 01:33:15;;;;;;;10.85;9.88;;;;;;;15.86;98.47;100693.97;1679616;84;21011;-70
2022/06/03 01:36:12;;;;;;;11.40;9.33;;;;;;;15.83;97.89;100691.73;1670030;84;21151;-73
2022/06/03 01:39:19;;;;;;;12.43;11.33;;;;;;;15.84;97.78;100701.42;1666320;84;22258;-69
2022/06/03 01:42:16;;;;;;;11.53;10.58;;;;;;;15.82;97.57;100716.42;1667477;84;21182;-69
2022/06/03 01:45:03;;;;;;;11.70;10.90;;;;;;;15.79;96.85;100720.08;1670359;85;20986;-69
2022/06/03 01:48:19;;;;;;;11.35;10.45;;;;;;;15.76;96.89;100723.50;1665560;84;21062;-69
2022/06/03 01:51:03;;;;;;;10.48;9.68;;;;;;;15.75;96.30;100728.56;1671048;84;21058;-70
2022/06/03 01:53:44;;;;;;;10.50;9.68;;;;;;;15.71;96.20;100727.30;1678435;85;21047;-69
2022/06/03 01:56:40;;;;;;;10.25;9.50;;;;;;;15.70;96.66;100732.89;1675168;84;21494;-69
2022/06/03 01:59:35;;;;;;;9.90;8.90;;;;;;;15.69;96.80;100736.10;1678969;84;21575;-68
2022/06/03 02:02:43;;;;;;;10.88;9.88;;;;;;;15.71;96.49;100748.80;1674942;84;21129;-78
2022/06/03 02:05:47;;;;;;;9.98;9.23;;;;;;;15.70;96.27;100742.30;1675428;84;21157;-69
2022/06/03 02:08:46;;;;;;;9.35;8.40;;;;;;;15.71;95.75;100747.99;1669273;84;21058;-73
2022/06/03 02:11:54;;;;;;;7.92;7.45;;;;;;;15.71;95.85;100757.40;1692756;84;21043;-70
2022/06/03 02:14:56;;;;;;;9.48;8.45;;;;;;;15.71;95.58;100758.21;1654731;84;21146;-70
2022/06/03 02:17:51;;;;;;;8.90;8.00;;;;;;;15.66;95.00;100758.02;1661210;84;21102;-68
2022/06/03 02:20:38;;;;;;;9.28;8.58;;;;;;;15.61;95.64;100752.44;1670869;84;21518;-68
2022/06/03 02:24:00;;;;;;;8.13;7.60;;;;;;;15.58;95.80;100759.59;1669039;84;21483;-70
2022/06/03 02:26:47;;;;;;;9.35;8.43;;;;;;;15.57;95.44;100767.34;1681473;84;21015;-70
2022/06/03 02:32:42;;;;;;;8.03;7.35;;;;;;;15.50;94.96;100753.94;1665953;84;21050;-69
2022/06/03 02:35:43;;;;;;;9.08;7.92;;;;;;;15.47;95.38;100755.69;1671389;84;21115;-70
2022/06/03 02:38:52;;;;;;;8.33;7.72;;;;;;;15.45;95.28;100756.95;1688142;84;21119;-71
2022/06/03 02:42:03;;;;;;;8.13;7.62;;;;;;;15.40;95.37;100766.14;1671863;84;21122;-71
2022/06/03 02:45:12;;;;;;;7.65;6.87;;;;;;;15.33;94.95;100767.48;1675006;84;20999;-70
2022/06/03 02:48:01;;;;;;;6.65;6.20;;;;;;;15.29;95.25;100777.81;1672618;84;21135;-69
2022/06/03 02:50:42;;;;;;;6.35;5.87;;;;;;;15.27;95.13;100781.76;1664665;84;21022;-69
2022/06/03 02:53:31;;;;;;;5.97;5.58;;;;;;;15.20;93.29;100771.04;1671614;84;21022;-76
2022/06/03 02:56:03;;;;;;;6.10;5.50;;;;;;;14.85;93.61;100727.48;1664799;84;21205;-77
2022/06/03 02:59:07;;;;;;;5.90;5.55;;;;;;;15.14;93.00;100788.80;1661214;84;21030;-69
2022/06/03 03:02:21;;;;;;;6.10;5.62;;;;;;;15.13;93.02;100791.69;1681039;84;21404;-72
2022/06/03 03:05:17;;;;;;;5.67;5.30;;;;;;;15.06;92.39;100786.84;1682577;84;21006;-69
2022/06/03 03:08:02;;;;;;;5.05;4.65;;;;;;;15.02;92.50;100795.00;1671860;84;22730;-70
2022/06/03 03:11:04;;;;;;;5.12;4.83;;;;;;;14.97;92.10;100793.77;1669912;84;21160;-74
2022/06/03 03:14:24;;;;;;;5.65;4.87;;;;;;;14.97;92.27;100795.11;1669221;84;20991;-68
2022/06/03 03:17:28;;;;;;;5.03;4.72;;;;;;;14.95;92.23;100811.91;1658420;84;21038;-69
2022/06/03 03:20:15;;;;;;;7.05;6.47;;;;;;;14.94;92.11;100821.01;1666567;84;21098;-70
2022/06/03 03:23:26;;;;;;;4.28;4.08;;;;;;;14.94;91.65;100826.38;1670768;84;21162;-78
2022/06/03 03:26:10;;;;;;;6.15;5.65;;;;;;;14.91;91.83;100831.33;1673906;84;21162;-70
2022/06/03 03:28:50;;;;;;;4.83;4.45;;;;;;;14.91;91.85;100828.64;1670803;84;21239;-70
2022/06/03 03:32:10;;;;;;;5.17;4.87;;;;;;;14.93;91.96;100826.58;1679038;84;21026;-71
2022/06/03 03:35:15;;;;;;;5.08;4.78;;;;;;;14.94;91.96;100830.92;1673574;84;21560;-70
2022/06/03 03:38:14;;;;;;;4.60;4.17;;;;;;;14.87;91.35;100829.56;1670999;84;21072;-72
2022/06/03 03:41:04;;;;;;;5.12;4.70;;;;;;;14.82;91.78;100837.91;1670588;84;21097;-69
2022/06/03 03:43:53;;;;;;;4.62;4.30;;;;;;;14.80;91.73;100839.45;1655567;84;21047;-71
2022/06/03 03:47:16;;;;;;;3.95;3.75;;;;;;;14.82;91.25;100838.73;1680025;84;21289;-70
2022/06/03 03:50:28;;;;;;;3.72;3.42;;;;;;;14.81;90.44;100842.98;1669221;84;21064;-70
2022/06/03 03:53:29;;;;;;;4.08;3.83;;;;;;;14.76;89.55;100852.45;1665233;84;21075;-69
2022/06/03 03:56:40;;;;;;;3.62;3.52;;;;;;;14.74;89.53;100860.41;1681596;84;21624;-72
2022/06/03 03:59:30;;;;;;;3.22;3.02;;;;;;;14.79;89.75;100866.00;1683225;84;21097;-70
2022/06/03 04:02:31;;;;;;;3.98;3.60;;;;;;;14.77;89.24;100866.19;1679493;83;21021;-70
2022/06/03 04:05:23;;;;;;;4.28;4.05;;;;;;;14.78;89.34;100876.41;1673373;84;21018;-69
2022/06/03 04:08:26;;;;;;;6.50;4.37;;;;;;;14.76;89.31;100877.94;1663787;84;21129;-68
2022/06/03 04:11:13;;;;;;;3.40;3.30;;;;;;;14.71;89.01;100891.66;1675383;84;21081;-72
2022/06/03 04:14:03;;;;;;;6.22;4.08;;;;;;;14.68;89.70;100891.55;1695592;84;21078;-69
2022/06/03 04:17:21;;;;;;;3.65;3.40;;;;;;;14.71;91.02;100899.21;1672559;84;21628;-69
2022/06/03 04:20:25;;;;;;;3.30;3.20;;;;;;;14.75;91.32;100892.41;1687814;84;21074;-69
2022/06/03 04:23:51;;;;;;;2.87;2.77;;;;;;;14.89;90.77;100899.14;1660741;83;21066;-71
2022/06/03 04:26:50;;;;;;;3.47;3.27;;;;;;;15.01;89.33;100908.77;1680536;84;21567;-69
2022/06/03 04:29:49;;;;;;;3.52;3.30;;;;;;;15.08;89.05;100909.61;1675679;84;21063;-74
2022/06/03 04:32:50;;;;;;;3.98;3.85;;;;;;;15.10;88.58;100894.13;1681590;84;21097;-74
2022/06/03 04:36:07;;;;;;;3.62;3.05;;;;;;;15.09;87.87;100900.54;1689976;84;21011;-69
2022/06/03 04:39:28;;;;;;;3.83;3.17;;;;;;;15.07;87.99;100906.59;1658016;84;21221;-71
2022/06/03 04:42:28;;;;;;;3.95;3.75;;;;;;;15.08;87.99;100917.66;1671176;84;21085;-69
2022/06/03 04:45:30;;;;;;;3.67;3.58;;;;;;;15.06;88.60;100918.39;1677448;84;21019;-69
2022/06/03 04:48:30;;;;;;;3.83;3.62;;;;;;;15.00;88.02;100913.31;1678507;84;21050;-71
2022/06/03 04:51:17;;;;;;;3.92;3.80;;;;;;;14.97;88.23;100927.13;1678905;84;20977;-71
2022/06/03 04:54:15;;;;;;;3.83;3.52;;;;;;;15.01;86.41;100932.41;1677683;84;21047;-69
2022/06/03 04:57:22;;;;;;;4.03;3.62;;;;;;;14.92;85.41;100940.36;1680568;83;21125;-71
2022/06/03 05:00:34;;;;;;;3.87;3.58;;;;;;;14.87;86.60;100940.12;1695177;83;21154;-70
2022/06/03 05:03:52;;;;;;;3.65;3.37;;;;;;;14.86;86.55;100947.36;1690248;83;21062;-70
2022/06/03 05:06:56;;;;;;;3.80;3.52;;;;;;;14.92;86.78;100957.80;1683029;83;21055;-69
2022/06/03 05:10:05;;;;;;;4.45;4.15;;;;;;;14.99;87.22;100952.77;1656627;83;21131;-69
2022/06/03 05:12:53;;;;;;;4.20;4.00;;;;;;;15.11;87.22;100956.20;1636423;84;21077;-71
2022/06/03 05:15:55;;;;;;;3.27;3.17;;;;;;;15.22;87.32;100948.89;1672065;84;21178;-68
2022/06/03 05:18:42;;;;;;;2.87;2.77;;;;;;;15.30;85.62;100954.58;1675771;84;21065;-71
2022/06/03 05:21:31;;;;;;;2.77;2.67;;;;;;;15.46;82.67;100957.38;1660461;85;21087;-76
2022/06/03 05:24:40;;;;;;;2.47;2.42;;;;;;;15.62;82.12;100962.35;1675545;84;21653;-69
2022/06/03 05:27:34;;;;;;;2.30;2.15;;;;;;;15.91;79.39;100962.98;1683352;84;21118;-72
2022/06/03 05:30:28;;;;;;;1.65;1.55;;;;;;;16.09;77.28;100967.21;1665376;84;21078;-70
2022/06/03 05:33:26;;;;;;;1.55;1.45;;;;;;;16.26;76.94;100974.31;1681588;84;21025;-71
2022/06/03 05:36:13;;;;;;;;;;;;;;;16.61;75.43;100975.86;1684739;84;21069;-71
2022/06/03 05:38:53;;;;;;;1.95;1.90;;;;;;;17.15;74.51;100988.08;1683153;84;20143;-72
2022/06/03 05:44:40;;;;;;;1.42;1.32;;;;;;;18.34;67.67;100984.66;1699315;84;21613;-71
2022/06/03 05:47:27;;;;;;;1.67;1.65;;;;;;;18.61;64.25;100989.22;1667208;84;21112;-72
2022/06/03 05:50:11;;;;;;;1.50;1.17;;;;;;;18.82;64.97;100992.86;1658024;84;21105;-73
2022/06/03 05:52:56;;;;;;;1.10;1.10;;;;;;;19.19;63.90;101000.90;1664834;84;21058;-73
2022/06/03 05:55:51;;;;;;;0.95;0.95;;;;;;;19.68;61.61;100997.25;1679894;84;21123;-71
2022/06/03 05:58:29;;;;;;;0.90;0.90;;;;;;;19.88;60.60;100998.31;1683007;84;21535;-72
2022/06/03 06:01:45;;;;;;;0.80;0.80;;;;;;;19.98;59.68;100996.66;1674619;84;21008;-71
2022/06/03 06:04:40;;;;;;;0.90;0.90;;;;;;;20.22;58.75;100995.31;1686430;83;21110;-70
2022/06/03 06:07:36;;;;;;;0.72;0.45;;;;;;;20.49;55.67;100992.09;1685293;83;21055;-72
2022/06/03 06:10:24;;;;;;;0.40;0.40;;;;;;;20.47;55.61;100995.03;1619263;87;21055;-79
2022/06/03 06:13:35;;;;;;;0.50;0.37;;;;;;;20.21;55.94;100996.35;1680765;83;21071;-70
2022/06/03 06:16:17;;;;;;;0.60;0.60;;;;;;;20.02;56.79;101001.91;1691822;83;21079;-70
2022/06/03 06:18:53;;;;;;;4.78;0.40;;;;;;;19.88;58.02;101004.55;1681330;83;21043;-71
2022/06/03 06:21:46;;;;;;;1.62;0.90;;;;;;;19.89;58.14;101001.30;1690172;83;21579;-71
2022/06/03 06:27:29;;;;;;;1.60;0.60;;;;;;;20.41;55.95;100995.45;1800713;78;22966;-72
2022/06/03 06:30:34;;;;;;;0.33;0.33;;;;;;;20.71;55.11;101001.26;1745833;80;20979;-72
2022/06/03 06:33:22;;;;;;;1.32;0.30;;;;;;;20.99;52.93;101004.53;1743536;80;21026;-71
2022/06/03 06:35:57;;;;;;;2.35;0.60;;;;;;;21.01;53.19;100997.52;1755111;80;21377;-73
2022/06/03 06:39:00;;;;;;;1.87;0.80;;;;;;;20.93;52.51;101004.69;1740187;81;21025;-75
2022/06/03 06:41:41;;;;;;;1.75;0.75;;;;;;;20.76;51.77;100994.59;1724978;82;21515;-71
2022/06/03 06:44:54;;;;;;;0.62;0.30;;;;;;;20.46;53.43;101006.13;1751110;80;21054;-74
2022/06/03 06:47:26;;;;;;;2.65;0.30;;;;;;;20.48;53.60;101003.47;1716826;82;21045;-70
2022/06/03 06:50:15;;;;;;;2.30;0.40;;;;;;;20.54;53.77;101007.92;1713906;82;21091;-71
2022/06/03 06:52:51;;;;;;;1.40;0.30;;;;;;;20.68;51.54;101001.76;1705137;82;20986;-70
2022/06/03 06:55:59;;;;;;;2.92;0.40;;;;;;;20.48;52.93;101002.11;1704267;82;21081;-71
2022/06/03 06:58:50;;;;;;;0.30;0.30;;;;;;;20.58;51.90;101010.44;1675896;85;21073;-70
2022/06/03 07:01:37;;;;;;;1.80;0.30;;;;;;;20.68;52.57;101000.91;1678596;84;21195;-73
2022/06/03 07:04:11;;;;;;;1.00;0.40;;;;;;;20.77;50.68;101013.84;1686283;84;21063;-74
2022/06/03 07:06:54;;;;;;;0.80;0.40;;;;;;;20.91;50.66;101012.23;1668668;84;21117;-71
2022/06/03 07:09:32;;;;;;;0.45;0.20;;;;;;;21.02;50.32;101011.38;1694998;84;21090;-72
2022/06/03 07:12:17;;;;;;;1.40;0.30;;;;;;;21.06;50.91;101021.17;1664840;84;21023;-73
2022/06/03 07:14:56;;;;;;;1.02;0.30;;;;;;;20.96;49.64;101014.52;1691555;84;21518;-72
2022/06/03 07:20:55;;;;;;;0.82;0.37;;;;;;;20.73;49.76;101013.22;1687345;83;21574;-70
2022/06/03 07:23:54;;;;;;;2.72;0.95;;;;;;;20.84;49.78;101019.14;1695406;83;21023;-71
2022/06/03 07:26:40;;;;;;;1.55;0.47;;;;;;;20.92;49.07;101032.84;1686920;84;21070;-72
2022/06/03 07:29:23;;;;;;;0.53;0.40;;;;;;;20.85;48.81;101029.44;1680668;84;21106;-71
2022/06/03 07:32:04;;;;;;;0.30;0.30;;;;;;;20.49;49.04;101031.36;1680472;85;21096;-72
2022/06/03 07:34:41;;;;;;;0.40;0.40;;;;;;;20.20;49.95;101028.02;1657965;84;21661;-69
2022/06/03 07:37:30;;;;;;;1.02;0.30;;;;;;;20.07;49.83;101030.14;1659713;84;21065;-72
2022/06/03 07:40:20;;;;;;;0.95;0.30;;;;;;;20.00;49.98;101021.62;1663816;84;21084;-71
2022/06/03 07:42:59;;;;;;;0.50;0.50;;;;;;;19.98;49.13;101023.70;1667111;84;21131;-74
2022/06/03 07:45:39;;;;;;;0.60;0.20;;;;;;;19.72;50.18;101030.88;1645077;85;21085;-72
2022/06/03 07:48:11;;;;;;;1.20;0.40;;;;;;;19.48;51.40;101024.08;1662356;86;21163;-72
2022/06/03 07:50:50;;;;;;;0.30;0.30;;;;;;;19.44;51.88;101019.66;1662287;84;21081;-74
2022/06/03 07:53:34;;;;;;;0.90;0.50;;;;;;;19.50;51.88;101007.63;1665222;84;21234;-73
2022/06/03 07:56:00;;;;;;;2.25;0.30;;;;;;;19.56;50.85;101019.68;1592593;86;22342;-72
2022/06/03 07:58:30;;;;;;;0.85;0.30;;;;;;;19.56;50.83;101012.92;1616766;87;21125;-72
2022/06/03 08:00:57;;;;;;;1.07;0.62;;;;;;;19.56;50.17;101011.56;1612314;87;21642;-72
2022/06/03 08:03:27;;;;;;;5.62;0.47;;;;;;;19.53;50.81;101012.55;1616944;86;21651;-73
2022/06/03 08:05:59;;;;;;;0.40;0.23;;;;;;;19.48;51.13;101010.56;1633370;86;21086;-72
2022/06/03 08:11:26;;;;;;;0.50;0.50;;;;;;;19.53;52.17;101020.13;1632836;86;21616;-70
2022/06/03 08:13:56;;;;;;;2.17;0.30;;;;;;;19.56;50.70;101021.03;1617445;87;21070;-73
2022/06/03 08:16:42;;;;;;;1.45;0.42;;;;;;;19.51;51.16;101018.19;1617599;87;21078;-73
2022/06/03 08:19:21;;;;;;;0.20;0.20;;;;;;;19.47;50.94;101012.95;1604632;87;21075;-71
2022/06/03 08:21:53;;;;;;;1.42;0.30;;;;;;;19.55;51.54;101023.96;1617262;87;21128;-72
2022/06/03 08:24:24;;;;;;;1.95;0.30;;;;;;;19.61;49.79;101030.63;1630659;85;21066;-73
2022/06/03 08:27:01;;;;;;;1.40;0.30;;;;;;;19.52;48.99;101027.96;1650509;85;21740;-70
2022/06/03 08:29:48;;;;;;;0.53;0.30;;;;;;;19.43;49.97;101022.58;1647678;85;21504;-72
2022/06/03 08:32:20;;;;;;;0.37;0.37;;;;;;;19.49;50.75;101021.66;1648428;85;21050;-71
2022/06/03 08:34:51;;;;;;;0.80;0.20;;;;;;;19.59;51.09;101021.94;1648895;85;21168;-73
2022/06/03 08:37:25;;;;;;;1.52;0.30;;;;;;;19.75;51.08;101020.98;1646362;85;21079;-71
2022/06/03 08:39:58;;;;;;;0.30;0.30;;;;;;;19.88;49.81;101020.77;1630833;85;21119;-71
2022/06/03 08:43:03;;;;;;;3.87;0.72;;;;;;;19.97;49.03;101016.67;1649067;85;21063;-72
2022/06/03 08:46:00;;;;;;;0.40;0.40;;;;;;;19.97;48.08;101024.78;1625079;87;21132;-73
2022/06/03 08:48:40;;;;;;;1.20;0.30;;;;;;;19.86;48.49;101020.72;1647336;85;21654;-74
2022/06/03 08:51:19;;;;;;;0.40;0.30;;;;;;;19.83;49.71;101028.25;1649203;85;21114;-72
2022/06/03 08:54:36;;;;;;;0.40;0.40;;;;;;;19.92;48.93;101031.41;1626551;85;21663;-71
2022/06/03 08:57:10;;;;;;;1.27;0.20;;;;;;;19.99;48.95;101033.48;1641456;87;21131;-72
2022/06/03 08:59:43;;;;;;;0.30;0.25;;;;;;;20.09;48.00;101039.67;1645419;85;21153;-74
2022/06/03 09:02:20;;;;;;;2.45;0.20;;;;;;;20.18;48.57;101039.62;1650956;85;21175;-73
2022/06/03 09:04:58;;;;;;;2.17;0.30;;;;;;;20.27;49.06;101038.75;1650708;85;21094;-71
2022/06/03 09:07:42;;;;;;;0.40;0.28;;;;;;;20.37;47.58;101039.50;1607590;85;21099;-71
2022/06/03 09:10:16;;;;;;;1.05;0.30;;;;;;;20.34;46.99;101040.80;1654667;85;21102;-71
2022/06/03 09:13:08;;;;;;;0.60;0.30;;;;;;;20.27;47.47;101049.57;1643143;85;21078;-72
2022/06/03 09:15:39;;;;;;;2.95;0.42;;;;;;;20.31;47.86;101056.69;1650802;85;21136;-69
2022/06/03 09:18:22;;;;;;;0.45;0.45;;;;;;;20.36;47.31;101057.64;1654588;85;21110;-72
2022/06/03 09:21:16;;;;;;;1.45;0.20;;;;;;;20.40;46.61;101049.33;1649352;85;21086;-71
2022/06/03 09:23:47;;;;;;;0.53;0.20;;;;;;;20.39;47.39;101047.67;1627720;86;21120;-73
2022/06/03 09:26:27;;;;;;;0.68;0.50;;;;;;;20.38;47.11;101046.04;1617126;87;21109;-72
2022/06/03 09:28:56;;;;;;;1.98;0.13;;;;;;;20.37;46.21;101052.50;1637093;87;21172;-69
2022/06/03 09:31:24;;;;;;;1.77;0.20;;;;;;;20.29;44.92;101046.09;1638167;87;21117;-72
2022/06/03 09:33:54;;;;;;;0.35;0.20;;;;;;;20.27;44.68;101054.98;1617685;87;21124;-72
2022/06/03 09:36:23;;;;;;;0.10;0.10;;;;;;;20.27;44.22;101056.34;1654067;85;21168;-71
2022/06/03 09:39:10;;;;;;;0.40;0.10;;;;;;;20.27;44.32;101067.17;1686894;83;21106;-73
2022/06/03 09:41:44;;;;;;;0.45;0.20;;;;;;;20.31;44.88;101064.81;1670303;84;21185;-72
2022/06/03 09:44:14;;;;;;;0.88;0.47;;;;;;;20.33;43.42;101051.87;1707201;83;21664;-71
2022/06/03 09:46:43;;;;;;;0.57;0.10;;;;;;;20.36;44.22;101057.64;1684534;84;21050;-72
2022/06/03 09:49:10;;;;;;;1.10;0.20;;;;;;;20.40;45.00;101047.98;1693178;83;21084;-72
2022/06/03 09:51:57;;;;;;;0.20;0.20;;;;;;;20.41;45.23;101060.44;1694689;83;21563;-71
2022/06/03 09:54:35;;;;;;;0.53;0.20;;;;;;;20.46;45.32;101058.93;1692354;83;21043;-71
2022/06/03 09:57:24;;;;;;;0.10;0.10;;;;;;;20.52;45.62;101055.27;1695555;83;21077;-73
2022/06/03 09:59:57;;;;;;;1.00;0.20;;;;;;;20.57;44.97;101052.67;1675807;83;21884;-73
2022/06/03 10:02:27;;;;;;;1.75;0.20;;;;;;;20.68;44.62;101055.94;1660957;85;21143;-76
2022/06/03 10:04:55;;;;;;;1.32;0.20;;;;;;;20.79;44.49;101060.51;1670280;85;21133;-73
2022/06/03 10:07:26;;;;;;;0.10;0.10;;;;;;;20.81;43.25;101056.17;1689570;84;21054;-72
2022/06/03 10:12:52;;;;;;;0.30;0.20;;;;;;;20.84;42.83;101054.89;1688817;83;21537;-72
2022/06/03 10:15:44;;;;;;;0.78;0.20;;;;;;;20.84;43.40;101048.94;1695933;83;21072;-72
2022/06/03 10:18:19;;;;;;;0.20;0.20;;;;;;;20.84;43.33;101048.13;1688365;83;21059;-70
2022/06/03 10:20:47;;;;;;;0.62;0.10;;;;;;;20.87;43.62;101039.50;1695846;83;21032;-74
2022/06/03 10:23:14;;;;;;;3.15;0.13;;;;;;;20.94;42.56;101057.80;1706117;83;21499;-73
2022/06/03 10:25:46;;;;;;;1.87;0.10;;;;;;;21.03;42.64;101052.84;1710559;83;21194;-72
2022/06/03 10:28:15;;;;;;;0.37;0.10;;;;;;;21.11;41.69;101057.33;1715796;83;21632;-75
2022/06/03 10:30:44;;;;;;;2.92;0.40;;;;;;;21.18;41.76;101053.95;1716386;83;21157;-70
2022/06/03 10:33:21;;;;;;;0.10;0.10;;;;;;;21.24;42.27;101048.63;1710052;83;21058;-74
2022/06/03 10:35:53;;;;;;;2.47;0.30;;;;;;;21.30;41.44;101047.66;1685615;83;21050;-77
2022/06/03 10:38:21;;;;;;;0.10;0.10;;;;;;;21.35;41.12;101043.70;1685544;84;21099;-72
2022/06/03 10:40:52;;;;;;;2.95;0.20;;;;;;;21.35;40.85;101044.51;1680079;83;21594;-74
2022/06/03 10:43:26;;;;;;;0.10;0.10;;;;;;;21.30;41.06;101047.66;1686752;84;21058;-71
2022/06/03 10:46:08;;;;;;;0.42;0.15;;;;;;;21.24;40.35;101037.25;1637134;86;21139;-73
2022/06/03 10:48:35;;;;;;;0.80;0.10;;;;;;;21.23;40.05;101044.27;1618267;87;21147;-71
2022/06/03 11:01:06;;;;;;;0.17;0.10;;;;;;;21.18;40.28;101043.65;1678770;84;21109;-71
2022/06/03 11:02:39;;;;;;;0.57;0.10;;;;;;;21.17;40.27;101042.83;1679247;83;21057;-72
2022/06/03 11:05:29;;;;;;;0.20;0.10;;;;;;;21.15;40.78;101044.12;1652246;85;21090;-71
2022/06/03 11:08:05;;;;;;;0.40;0.10;;;;;;;21.19;41.00;101035.28;1679224;85;21119;-70
2022/06/03 11:10:46;;;;;;;2.33;0.10;;;;;;;21.22;40.64;101036.67;1689292;84;21864;-73
2022/06/03 11:13:28;;;;;;;2.55;0.30;;;;;;;21.26;40.78;101039.72;1674602;84;21053;-75
2022/06/03 11:15:57;;;;;;;1.10;0.10;;;;;;;21.29;40.76;101040.61;1658966;85;21155;-73
2022/06/03 11:18:32;;;;;;;0.20;0.20;;;;;;;21.31;39.95;101045.25;1712141;83;21087;-73
2022/06/03 11:21:20;;;;;;;0.45;0.10;;;;;;;21.34;39.28;101032.55;1706823;83;21026;-73
2022/06/03 11:23:46;;;;;;;1.32;0.10;;;;;;;21.38;39.87;101047.29;1681114;83;21699;-73
2022/06/03 11:26:14;;;;;;;0.72;0.20;;;;;;;21.39;40.03;101031.29;1679394;84;21081;-72
2022/06/03 11:28:47;;;;;;;0.10;0.10;;;;;;;21.42;40.30;101025.90;1680366;85;21775;-72
2022/06/03 11:31:29;;;;;;;2.33;0.20;;;;;;;21.46;40.09;101033.36;1666399;84;21093;-73
2022/06/03 11:34:09;;;;;;;0.40;0.30;;;;;;;21.47;39.89;101040.95;1687169;83;21084;-81
2022/06/03 11:36:48;;;;;;;0.72;0.50;;;;;;;21.50;40.19;101034.51;1694093;83;21085;-72
2022/06/03 11:39:28;;;;;;;2.20;0.10;;;;;;;21.53;39.88;101030.47;1693763;83;21544;-74
2022/06/03 11:42:23;;;;;;;0.72;0.30;;;;;;;21.57;38.90;101026.23;1694374;83;21566;-72
2022/06/03 11:45:00;;;;;;;0.35;0.10;;;;;;;21.57;39.11;101024.88;1690677;83;21082;-74
2022/06/03 11:47:35;;;;;;;0.72;0.10;;;;;;;21.63;38.66;101032.56;1694068;83;21022;-75
2022/06/03 11:50:03;;;;;;;1.92;0.20;;;;;;;21.67;38.46;101029.64;1694474;83;21149;-73
2022/06/03 11:52:30;;;;;;;1.10;0.10;;;;;;;21.71;38.43;101024.01;1694911;83;21097;-71
2022/06/03 11:54:56;;;;;;;1.10;0.30;;;;;;;21.76;37.95;101021.39;1693339;83;21073;-72
2022/06/03 11:57:23;;;;;;;0.57;0.15;;;;;;;21.82;37.90;101019.58;1721951;82;21077;-72
2022/06/03 11:59:58;;;;;;;0.10;0.10;;;;;;;21.85;37.92;101020.42;1723356;83;21618;-73
2022/06/03 12:02:33;;;;;;;0.30;0.10;;;;;;;21.84;37.94;101011.47;1706903;83;21619;-72
2022/06/03 12:05:18;;;;;;;0.17;0.17;;;;;;;21.84;38.02;101010.11;1715390;82;21027;-73
2022/06/03 12:08:02;;;;;;;0.78;0.20;;;;;;;21.79;38.05;101005.95;1706635;82;21361;-73
2022/06/03 12:10:46;;;;;;;0.57;0.20;;;;;;;21.73;38.66;101002.34;1708485;82;21082;-72
2022/06/03 12:13:31;;;;;;;0.20;0.20;;;;;;;21.73;38.60;101004.23;1708218;83;21111;-73
2022/06/03 12:16:12;;;;;;;0.10;0.10;;;;;;;21.66;38.10;100999.50;1718880;82;21070;-72
2022/06/03 12:19:01;;;;;;;0.20;0.10;;;;;;;21.64;38.52;101009.23;1716851;83;21105;-73
2022/06/03 12:21:33;;;;;;;0.50;0.20;;;;;;;21.62;38.24;100999.70;1722934;82;21042;-72
2022/06/03 12:24:34;;;;;;;0.60;0.60;;;;;;;21.64;38.57;100998.92;1706215;82;21106;-72
2022/06/03 12:27:04;;;;;;;1.80;0.20;;;;;;;21.67;38.10;100999.27;1697404;83;21783;-71
2022/06/03 12:29:36;;;;;;;0.20;0.10;;;;;;;21.64;38.07;100997.57;1696192;83;21032;-72
2022/06/03 12:32:17;;;;;;;1.95;0.10;;;;;;;21.63;38.28;100998.66;1720903;83;21027;-72
2022/06/03 12:34:43;;;;;;;0.78;0.20;;;;;;;21.63;38.51;101004.08;1706890;82;21038;-72
2022/06/03 12:37:29;;;;;;;0.13;0.13;;;;;;;21.66;38.90;100993.56;1708666;83;21164;-73
2022/06/03 12:40:00;;;;;;;1.82;0.20;;;;;;;21.70;38.82;100997.42;1708483;82;21086;-71
2022/06/03 12:42:38;;;;;;;0.50;0.10;;;;;;;21.69;39.15;100992.23;1723072;83;21092;-77
2022/06/03 12:45:13;;;;;;;0.15;0.10;;;;;;;21.65;38.71;100995.97;1706484;83;21011;-70
2022/06/03 12:47:49;;;;;;;0.15;0.10;;;;;;;21.63;38.74;100984.55;1677800;84;21081;-72
2022/06/03 12:50:38;;;;;;;0.35;0.10;;;;;;;21.62;39.15;100989.67;1675713;85;21552;-74
2022/06/03 12:53:33;;;;;;;1.47;0.10;;;;;;;21.63;39.05;100985.09;1643872;85;21135;-71
2022/06/03 12:56:04;;;;;;;2.05;0.15;;;;;;;21.66;38.78;100981.36;1659551;85;21001;-72
2022/06/03 12:58:47;;;;;;;2.47;0.20;;;;;;;21.70;38.95;100977.08;1722136;83;21065;-73
2022/06/03 13:01:34;;;;;;;3.02;0.10;;;;;;;21.73;38.98;100979.27;1718016;82;21205;-72
2022/06/03 13:04:56;;;;;;;0.10;0.10;;;;;;;21.78;38.74;100982.62;1710563;82;21037;-72
2022/06/03 13:07:31;;;;;;;5.40;0.23;;;;;;;21.77;39.05;100972.82;1720452;82;21070;-71
2022/06/03 13:10:09;;;;;;;6.60;0.20;;;;;;;21.79;38.96;100981.53;1722463;82;21138;-71
2022/06/03 13:12:42;;;;;;;3.08;0.28;;;;;;;21.82;38.92;100978.88;1711040;82;21348;-72
2022/06/03 13:15:31;;;;;;;0.40;0.20;;;;;;;21.78;38.37;100978.00;1720351;82;21626;-72
2022/06/03 13:18:18;;;;;;;0.57;0.25;;;;;;;21.78;38.89;100977.19;1713295;83;21089;-74
2022/06/03 13:21:04;;;;;;;0.30;0.20;;;;;;;21.79;38.99;100973.39;1716090;83;21095;-71
2022/06/03 13:23:38;;;;;;;1.10;0.10;;;;;;;21.85;39.26;100975.14;1665287;83;21054;-72
2022/06/03 13:26:27;;;;;;;2.15;0.17;;;;;;;21.91;39.19;100968.71;1713906;83;21082;-72